Decoded Metar for KDYB ( in ) (IATA:) | Meteo·Mobile Aviation Weather
aviador You're here:

KDYB Decoded Metar

in
Report Time2018-10-17 19:55:00
UTC Time2018-10-17 20:04:08
Flight Rules vfr VFR
Wind280° at 04 kt
W.Decomp.*RWY 24: 3.1 kt HW 2.6 kt RCW
W.Rank280° ranks 20
Current wind is below 280° avg. (6.2)
Visibility9999 m
Phenomena:N/A
Clouds:N/A
Expected CloudBase > 3,200 ft AGL from Temp-Dew spread
CeilingNone
Temp28°C
Dew Point20°C (62% RH)
Heat Index29.7°C
QNH1019 hPa
Raw Report
METAR KDYB 171955Z AUTO 28004KT 10SM CLR 28/20 A3010 RMK AO1=

Extra information for KDYB:More info

Social comments